Pagrindinis puslapis
METAR-TAF:

METAR-TAF

Oro uostai :

Manila, Filipinai

platuma: 14-31N, ilguma: 121-00E, Aukštis: 14 m

Dabartinis oras

Ataskaita buvo paskelbta 44 minutes, ne 01:00 UTC
Vėjas 2 kt iš Rytų/Šiaurės Rytų
Temperatūra 28°C
Drėgmė 70%
Slėgis 1009 hPa
Matomumas 10 km arba daugiau
Mažai debesys ne aukštis 3000 ft

METAR: RPLL 260100Z 06002KT 9999 FEW030 28/22 Q1009 NOSIG RMK A2980

Laikas: 09:44 (01:44 UTC)

Prognozė

Ataskaita buvo paskelbta 2 valandos ir 44 minutes, ne 23:00 UTC
Prognozė galioja nuo 26 metu 00 UTC su 27 metu 06 UTC
Vėjas 6 kt iš Pietryčių
Matomumas 10 km arba daugiau
Mažai debesys ne aukštis 2500 ft
Išsisklaidę debesys ne aukštis 10000 ft
Laikinai
nuo 26 metu 00 UTC su 26 metu 06 UTC
Vėjas 3 kt nuo kintamojo kryptimis
Mažai debesys ne aukštis 3000 ft
Laikinai
nuo 26 metu 12 UTC su 26 metu 18 UTC
Mažai debesys ne aukštis 2300 ft
Išsisklaidę debesys ne aukštis 10000 ft

TAF: RPLL 252300Z 2600/2706 14006KT 9999 FEW025 SCT100 TX33/2606Z TN24/2621Z TEMPO 2600/2606 VRB03KT FEW030 TEMPO 2612/2618 FEW023 SCT100

Orai ataskaitas ir orų prognozės (METAR, TAF).

turimą stotys yra geltonos ir raudonos taškus žemėlapyje.

Perkelti pele per norėdami pamatyti stoties vardą.

Tada spustelėkite, norėdami matyti oro stebėjimo ir prognozės.

Norėdami pakeisti žemėlapį: spustelėkite ant žalios mygtukų su juodo kryžiaus žemyn,; žalią mygtuką su brūkšneliu, jei norite nutolinti; arba žalių rodyklių gretimoms žemėlapius.


METAR-TAF: